createdAt,value
2023-10-23T00:00:19.151Z,1.20
2023-10-23T00:02:45.768Z,1.33
2023-10-23T00:05:13.423Z,1.17
2023-10-23T00:10:07.382Z,0.93
2023-10-23T00:12:33.953Z,1.40
2023-10-23T00:15:00.705Z,1.20
2023-10-23T00:17:27.264Z,1.00
2023-10-23T00:19:53.824Z,1.25
2023-10-23T00:22:20.373Z,1.17
2023-10-23T00:24:47.054Z,1.13
2023-10-23T00:27:13.676Z,1.13
2023-10-23T00:29:40.259Z,1.13
2023-10-23T00:32:07.027Z,1.17
2023-10-23T00:34:33.620Z,1.40
2023-10-23T00:37:00.170Z,1.05
2023-10-23T00:39:26.793Z,1.05
2023-10-23T00:41:53.420Z,1.00
2023-10-23T00:44:19.974Z,1.00
2023-10-23T00:46:46.946Z,1.25
2023-10-23T00:49:13.618Z,0.90
2023-10-23T00:51:40.559Z,0.90
2023-10-23T00:54:08.288Z,1.05
2023-10-23T00:56:35.875Z,0.98
2023-10-23T00:59:02.774Z,1.10
2023-10-23T01:01:32.545Z,1.05
2023-10-23T01:04:01.227Z,0.80
2023-10-23T01:06:29.252Z,1.00
2023-10-23T01:08:56.231Z,1.10
2023-10-23T01:11:22.995Z,1.10
2023-10-23T01:13:49.741Z,1.30
2023-10-23T01:16:16.470Z,1.30
2023-10-23T01:18:43.240Z,1.05
2023-10-23T01:21:09.987Z,0.73
2023-10-23T01:23:37.491Z,1.00
2023-10-23T01:26:04.458Z,0.70
2023-10-23T01:28:31.381Z,1.05
2023-10-23T01:30:58.088Z,1.10
2023-10-23T01:33:25.035Z,1.10
2023-10-23T01:35:51.916Z,1.00
2023-10-23T01:38:19.319Z,0.93
2023-10-23T01:40:45.956Z,0.93
2023-10-23T01:43:12.739Z,1.08
2023-10-23T01:45:39.548Z,1.08
2023-10-23T01:48:06.696Z,1.05
2023-10-23T01:50:33.333Z,0.80
2023-10-23T01:52:59.921Z,0.98
2023-10-23T01:55:26.571Z,0.70
2023-10-23T01:57:53.128Z,0.85
2023-10-23T02:00:19.786Z,0.88
2023-10-23T02:02:46.453Z,1.10
2023-10-23T02:05:13.072Z,0.75
2023-10-23T02:07:45.989Z,1.08
2023-10-23T02:10:12.557Z,0.82
2023-10-23T02:12:39.143Z,0.70
2023-10-23T02:15:06.422Z,0.90
2023-10-23T02:17:33.105Z,0.60
2023-10-23T02:19:59.697Z,1.13
2023-10-23T02:22:26.265Z,1.00
2023-10-23T02:24:52.842Z,0.98
2023-10-23T02:27:21.098Z,0.88
2023-10-23T02:29:47.847Z,0.65
2023-10-23T02:32:15.941Z,0.90
2023-10-23T02:34:44.208Z,0.85
2023-10-23T02:37:10.867Z,0.60
2023-10-23T02:39:37.913Z,0.88
2023-10-23T02:42:05.034Z,0.70
2023-10-23T02:44:31.627Z,0.80
2023-10-23T02:46:59.304Z,0.90
2023-10-23T02:49:25.992Z,0.77
2023-10-23T02:51:52.693Z,0.75
2023-10-23T02:54:19.384Z,0.80
2023-10-23T02:56:46.007Z,0.98
2023-10-23T02:59:12.600Z,0.80
2023-10-23T03:01:39.254Z,0.68
2023-10-23T03:04:06.512Z,0.90
2023-10-23T03:06:33.246Z,1.17
2023-10-23T03:09:00.356Z,0.63
2023-10-23T03:11:27.119Z,0.90
2023-10-23T03:13:53.741Z,0.95
2023-10-23T03:16:20.331Z,0.70
2023-10-23T03:18:46.974Z,0.90
2023-10-23T03:21:13.900Z,0.80
2023-10-23T03:23:40.562Z,0.70
2023-10-23T03:26:07.153Z,0.90
2023-10-23T03:28:33.765Z,1.10
2023-10-23T03:31:04.598Z,1.13
2023-10-23T03:33:31.636Z,1.77
2023-10-23T03:35:58.218Z,1.80
2023-10-23T03:38:24.805Z,1.60
2023-10-23T03:40:59.368Z,1.73
2023-10-23T03:43:26.464Z,1.77
2023-10-23T03:45:53.196Z,1.50
2023-10-23T03:48:20.159Z,1.50
2023-10-23T03:50:46.992Z,1.50
2023-10-23T03:53:13.639Z,1.42
2023-10-23T03:55:40.223Z,1.40
2023-10-23T03:58:06.808Z,1.20
2023-10-23T04:00:33.536Z,1.67
2023-10-23T04:03:00.324Z,1.13
2023-10-23T04:05:26.951Z,1.17
2023-10-23T04:07:53.519Z,1.20
2023-10-23T04:10:20.179Z,1.23
2023-10-23T04:12:46.766Z,1.02
2023-10-23T04:15:13.402Z,0.80
2023-10-23T04:17:39.977Z,1.08
2023-10-23T04:20:07.804Z,0.93
2023-10-23T04:25:00.885Z,0.98
2023-10-23T04:27:27.495Z,0.85
2023-10-23T04:29:54.729Z,1.10
2023-10-23T04:32:21.352Z,1.15
2023-10-23T04:34:47.888Z,0.93
2023-10-23T04:37:14.510Z,0.70
2023-10-23T04:39:41.335Z,1.00
2023-10-23T04:42:08.191Z,1.13
2023-10-23T04:44:35.264Z,1.17
2023-10-23T04:47:01.849Z,1.10
2023-10-23T04:49:28.479Z,1.10
2023-10-23T04:51:55.394Z,0.85
2023-10-23T04:54:22.014Z,1.05
2023-10-23T04:56:48.580Z,0.82
2023-10-23T04:59:15.308Z,1.23
2023-10-23T05:01:41.990Z,1.05
2023-10-23T05:04:08.736Z,1.10
2023-10-23T05:06:35.553Z,1.08
2023-10-23T05:09:02.128Z,1.10
2023-10-23T05:11:28.765Z,1.20
2023-10-23T05:13:55.361Z,1.52
2023-10-23T05:16:22.064Z,1.67
2023-10-23T05:18:48.829Z,1.55
2023-10-23T05:21:15.651Z,1.38
2023-10-23T05:23:43.072Z,1.60
2023-10-23T05:26:12.886Z,1.80
2023-10-23T05:28:41.571Z,1.75
2023-10-23T05:31:09.850Z,2.22
2023-10-23T05:33:37.098Z,1.92
2023-10-23T05:36:10.531Z,2.10
2023-10-23T05:38:38.560Z,2.42
2023-10-23T05:41:08.853Z,2.60
2023-10-23T05:43:35.479Z,2.80
2023-10-23T05:46:05.348Z,2.80
2023-10-23T05:48:32.471Z,3.10
2023-10-23T05:51:00.279Z,3.00
2023-10-23T05:53:27.472Z,3.00
2023-10-23T05:55:54.753Z,2.85
2023-10-23T05:58:21.657Z,2.83
2023-10-23T06:00:48.357Z,2.70
2023-10-23T06:03:14.957Z,2.65
2023-10-23T06:05:42.606Z,2.10
2023-10-23T06:08:10.405Z,2.20
2023-10-23T06:10:46.654Z,2.30
2023-10-23T06:13:13.337Z,2.05
2023-10-23T06:15:40.342Z,1.95
2023-10-23T06:18:07.560Z,2.08
2023-10-23T06:20:35.396Z,2.20
2023-10-23T06:23:02.047Z,2.22
2023-10-23T06:25:30.379Z,2.30
2023-10-23T06:27:57.945Z,2.67
2023-10-23T06:30:24.984Z,2.17
2023-10-23T06:32:51.720Z,2.25
2023-10-23T06:35:18.653Z,2.22
2023-10-23T06:37:45.770Z,4.10
2023-10-23T06:40:12.357Z,4.55
2023-10-23T06:42:39.016Z,4.25
2023-10-23T06:45:06.395Z,3.60
2023-10-23T06:47:33.575Z,4.13
2023-10-23T06:50:00.925Z,4.65
2023-10-23T06:52:27.491Z,4.53
2023-10-23T06:54:54.017Z,4.40
2023-10-23T06:57:20.610Z,4.00
2023-10-23T06:59:47.243Z,4.68
2023-10-23T07:02:13.890Z,4.72
2023-10-23T07:04:40.699Z,4.22
2023-10-23T07:07:17.919Z,4.47
2023-10-23T07:09:57.773Z,4.68
2023-10-23T07:12:24.368Z,4.40
2023-10-23T07:14:50.980Z,4.70
2023-10-23T07:17:18.435Z,4.50
2023-10-23T07:19:45.054Z,4.13
2023-10-23T07:22:11.665Z,4.50
2023-10-23T07:24:38.226Z,4.47
2023-10-23T07:27:05.499Z,4.55
2023-10-23T07:29:32.168Z,5.25
2023-10-23T07:31:58.737Z,5.05
2023-10-23T07:34:25.309Z,4.55
2023-10-23T07:36:51.858Z,4.53
2023-10-23T07:39:19.436Z,5.32
2023-10-23T07:41:46.043Z,5.07
2023-10-23T07:44:12.969Z,5.28
2023-10-23T07:46:40.315Z,4.90
2023-10-23T07:49:07.075Z,5.97
2023-10-23T07:51:33.707Z,6.07
2023-10-23T07:54:00.372Z,5.38
2023-10-23T07:56:26.909Z,5.85
2023-10-23T07:58:56.606Z,5.70
2023-10-23T08:01:23.569Z,5.25
2023-10-23T08:03:50.401Z,4.88
2023-10-23T08:06:17.153Z,5.10
2023-10-23T08:08:46.592Z,5.57
2023-10-23T08:11:16.478Z,5.60
2023-10-23T08:13:44.688Z,5.10
2023-10-23T08:16:11.555Z,5.60
2023-10-23T08:18:41.544Z,5.45
2023-10-23T08:21:13.305Z,5.60
2023-10-23T08:23:41.556Z,4.90
2023-10-23T08:26:08.476Z,5.68
2023-10-23T08:28:58.832Z,5.40
2023-10-23T08:31:36.754Z,5.63
2023-10-23T08:34:07.059Z,5.15
2023-10-23T08:39:01.727Z,4.97
2023-10-23T08:41:28.335Z,4.50
2023-10-23T08:43:56.424Z,4.38
2023-10-23T08:46:27.017Z,4.35
2023-10-23T08:48:54.019Z,4.43
2023-10-23T08:51:20.895Z,4.95
2023-10-23T08:56:24.544Z,4.55
2023-10-23T08:58:58.760Z,4.65
2023-10-23T09:01:26.287Z,4.65
2023-10-23T09:04:03.834Z,4.75
2023-10-23T09:06:32.408Z,4.53
2023-10-23T09:08:59.204Z,5.28
2023-10-23T09:11:47.199Z,4.70
2023-10-23T09:14:26.031Z,3.85
2023-10-23T09:16:54.531Z,3.20
2023-10-23T09:19:37.613Z,3.72
2023-10-23T09:22:05.860Z,3.40
2023-10-23T09:24:32.526Z,3.40
2023-10-23T09:26:59.294Z,3.10
2023-10-23T09:29:27.317Z,2.80
2023-10-23T09:31:55.417Z,3.00
2023-10-23T09:34:23.227Z,2.75
2023-10-23T09:39:23.536Z,2.53
2023-10-23T09:41:51.026Z,1.92
2023-10-23T09:44:18.607Z,1.92
2023-10-23T09:46:48.240Z,2.05
2023-10-23T09:49:16.673Z,2.05
2023-10-23T09:51:44.316Z,1.75
2023-10-23T09:54:18.514Z,2.03
2023-10-23T09:56:49.938Z,2.15
2023-10-23T09:59:18.644Z,2.45
2023-10-23T10:01:51.092Z,2.17
2023-10-23T10:04:30.847Z,2.58
2023-10-23T10:07:15.887Z,2.97
2023-10-23T10:09:43.480Z,2.45
2023-10-23T10:12:11.135Z,2.92
2023-10-23T10:14:38.685Z,2.30
2023-10-23T10:17:06.148Z,1.80
2023-10-23T10:19:34.299Z,1.85
2023-10-23T10:22:15.998Z,1.73
2023-10-23T10:24:43.407Z,1.50
2023-10-23T10:27:10.775Z,1.58
2023-10-23T10:29:37.524Z,1.90
2023-10-23T10:32:12.381Z,1.83
2023-10-23T10:34:58.032Z,1.85
2023-10-23T10:37:29.995Z,1.50
2023-10-23T10:39:56.600Z,1.55
2023-10-23T10:42:25.192Z,1.63
2023-10-23T10:45:01.874Z,1.15
2023-10-23T10:47:41.991Z,1.60
2023-10-23T10:50:09.668Z,1.70
2023-10-23T10:52:41.295Z,1.40
2023-10-23T10:55:12.948Z,1.00
2023-10-23T10:57:45.799Z,1.00
2023-10-23T11:00:13.697Z,1.40
2023-10-23T11:02:41.173Z,1.33
2023-10-23T11:05:12.392Z,1.00
2023-10-23T11:07:39.905Z,1.00
2023-10-23T11:10:07.716Z,1.10
2023-10-23T11:15:01.085Z,0.95
2023-10-23T11:17:27.747Z,0.95
2023-10-23T11:19:54.504Z,0.70
2023-10-23T11:22:23.204Z,0.90
2023-10-23T11:24:50.087Z,1.00
2023-10-23T11:27:16.867Z,1.00
2023-10-23T11:29:45.896Z,0.80
2023-10-23T11:32:14.758Z,1.13
2023-10-23T11:34:42.392Z,1.00
2023-10-23T11:37:11.192Z,1.00
2023-10-23T11:39:39.835Z,1.10
2023-10-23T11:42:07.534Z,1.27
2023-10-23T11:44:37.704Z,1.00
2023-10-23T11:47:09.002Z,1.00
2023-10-23T11:49:36.188Z,1.20
2023-10-23T11:52:03.855Z,0.82
2023-10-23T11:56:59.706Z,0.75
2023-10-23T11:59:27.375Z,0.60
2023-10-23T12:01:56.407Z,0.50
2023-10-23T12:04:24.019Z,0.65
2023-10-23T12:06:50.818Z,0.50
2023-10-23T12:09:17.542Z,0.60
2023-10-23T12:11:44.200Z,0.88
2023-10-23T12:14:10.861Z,0.60
2023-10-23T12:16:37.531Z,0.38
2023-10-23T12:19:05.405Z,0.50
2023-10-23T12:21:33.025Z,0.60
2023-10-23T12:23:59.601Z,0.60
2023-10-23T12:26:26.894Z,0.82
2023-10-23T12:28:53.546Z,0.60
2023-10-23T12:31:24.069Z,0.60
2023-10-23T12:33:51.754Z,0.50
2023-10-23T12:36:18.517Z,0.60
2023-10-23T12:38:45.096Z,0.70
2023-10-23T12:41:11.808Z,0.47
2023-10-23T12:43:39.089Z,0.70
2023-10-23T12:46:05.842Z,0.68
2023-10-23T12:48:32.476Z,0.70
2023-10-23T12:50:59.118Z,0.80
2023-10-23T12:53:25.820Z,0.90
2023-10-23T12:55:52.532Z,0.60
2023-10-23T12:58:19.207Z,0.90
2023-10-23T13:00:45.849Z,0.70
2023-10-23T13:03:12.514Z,0.60
2023-10-23T13:05:39.780Z,0.80
2023-10-23T13:08:06.404Z,0.70
2023-10-23T13:10:33.556Z,0.80
2023-10-23T13:13:00.193Z,0.55
2023-10-23T13:15:27.674Z,0.60
2023-10-23T13:17:57.508Z,0.80
2023-10-23T13:21:28.199Z,0.68
2023-10-23T13:23:10.878Z,1.60
2023-10-23T13:25:39.276Z,1.15
2023-10-23T13:28:08.536Z,1.33
2023-10-23T13:30:35.111Z,1.00
2023-10-23T13:33:02.003Z,1.10
2023-10-23T13:35:28.729Z,0.85
2023-10-23T13:37:55.277Z,0.90
2023-10-23T13:40:21.926Z,0.95
2023-10-23T13:42:48.574Z,0.90
2023-10-23T13:45:17.313Z,0.60
2023-10-23T13:47:44.701Z,0.85
2023-10-23T13:50:11.456Z,0.90
2023-10-23T13:52:38.012Z,0.70
2023-10-23T13:55:04.983Z,0.90
2023-10-23T13:57:31.587Z,1.00
2023-10-23T13:59:58.141Z,0.85
2023-10-23T14:02:24.828Z,1.00
2023-10-23T14:04:51.506Z,0.80
2023-10-23T14:07:18.161Z,0.88
2023-10-23T14:09:47.294Z,1.00
2023-10-23T14:12:16.336Z,0.70
2023-10-23T14:14:43.090Z,0.75
2023-10-23T14:17:10.228Z,0.73
2023-10-23T14:19:46.606Z,1.13
2023-10-23T14:22:14.361Z,0.70
2023-10-23T14:24:41.452Z,0.80
2023-10-23T14:27:08.411Z,0.80
2023-10-23T14:29:35.005Z,0.70
2023-10-23T14:32:02.199Z,0.75
2023-10-23T14:34:29.167Z,0.98
2023-10-23T14:36:56.458Z,0.63
2023-10-23T14:39:30.794Z,0.50
2023-10-23T14:41:57.469Z,1.00
2023-10-23T14:44:26.958Z,0.55
2023-10-23T14:46:53.769Z,0.73
2023-10-23T14:49:22.635Z,0.73
2023-10-23T14:51:51.256Z,0.70
2023-10-23T14:54:17.876Z,0.70
2023-10-23T14:56:45.124Z,0.73
2023-10-23T14:59:12.523Z,0.80
2023-10-23T15:01:39.215Z,0.68
2023-10-23T15:04:06.345Z,1.05
2023-10-23T15:06:33.040Z,0.60
2023-10-23T15:09:00.009Z,0.95
2023-10-23T15:11:26.568Z,0.80
2023-10-23T15:13:56.840Z,0.80
2023-10-23T15:16:23.682Z,0.90
2023-10-23T15:18:51.700Z,0.57
2023-10-23T15:21:18.302Z,0.70
2023-10-23T15:23:44.875Z,0.80
2023-10-23T15:26:11.678Z,0.50
2023-10-23T15:28:39.472Z,0.90
2023-10-23T15:31:07.370Z,0.70
2023-10-23T15:33:38.438Z,0.80
2023-10-23T15:36:06.256Z,0.75
2023-10-23T15:41:10.434Z,0.90
2023-10-23T15:43:38.636Z,1.00
2023-10-23T15:46:06.200Z,0.80
2023-10-23T15:48:32.985Z,1.10
2023-10-23T15:50:59.773Z,1.80
2023-10-23T15:53:29.569Z,1.40
2023-10-23T15:55:57.899Z,1.73
2023-10-23T15:58:25.372Z,1.67
2023-10-23T16:00:53.375Z,1.88
2023-10-23T16:03:20.135Z,2.20
2023-10-23T16:05:46.962Z,2.00
2023-10-23T16:08:14.040Z,2.00
2023-10-23T16:10:48.599Z,2.40
2023-10-23T16:13:16.911Z,1.80
2023-10-23T16:15:44.526Z,2.10
2023-10-23T16:18:12.330Z,2.72
2023-10-23T16:23:06.502Z,2.20
2023-10-23T16:25:43.224Z,2.05
2023-10-23T16:28:11.339Z,1.65
2023-10-23T16:30:39.629Z,2.13
2023-10-23T16:33:06.232Z,1.98
2023-10-23T16:35:35.199Z,2.25
2023-10-23T16:38:01.786Z,1.83
2023-10-23T16:40:28.379Z,2.13
2023-10-23T16:42:55.103Z,1.98
2023-10-23T16:45:22.058Z,1.83
2023-10-23T16:47:48.676Z,1.95
2023-10-23T16:50:15.300Z,2.50
2023-10-23T16:52:45.982Z,2.30
2023-10-23T16:55:12.796Z,2.45
2023-10-23T16:57:39.504Z,2.25
2023-10-23T17:00:06.676Z,2.47
2023-10-23T17:02:33.430Z,2.60
2023-10-23T17:05:00.083Z,2.10
2023-10-23T17:07:26.736Z,2.17
2023-10-23T17:09:53.526Z,2.03
2023-10-23T17:12:20.253Z,2.03
2023-10-23T17:14:46.815Z,2.10
2023-10-23T17:17:13.544Z,2.50
2023-10-23T17:19:41.800Z,1.98
2023-10-23T17:22:09.530Z,1.85
2023-10-23T17:24:36.571Z,2.47
2023-10-23T17:27:03.406Z,2.47
2023-10-23T17:29:31.516Z,2.47
2023-10-23T17:31:58.888Z,2.53
2023-10-23T17:34:29.477Z,2.63
2023-10-23T17:36:57.050Z,2.75
2023-10-23T17:39:23.683Z,2.80
2023-10-23T17:41:50.465Z,2.70
2023-10-23T17:44:17.035Z,2.58
2023-10-23T17:46:43.696Z,2.78
2023-10-23T17:49:10.535Z,1.98
2023-10-23T17:51:37.079Z,2.28
2023-10-23T17:54:06.016Z,2.90
2023-10-23T17:56:36.259Z,2.30
2023-10-23T17:59:04.020Z,2.05
2023-10-23T18:01:30.679Z,2.13
2023-10-23T18:03:57.410Z,1.85
2023-10-23T18:06:24.114Z,2.10
2023-10-23T18:08:50.682Z,2.35
2023-10-23T18:11:17.380Z,2.45
2023-10-23T18:13:44.989Z,1.67
2023-10-23T18:18:41.882Z,1.80
2023-10-23T18:21:08.492Z,1.98
2023-10-23T18:23:35.336Z,1.85
2023-10-23T18:26:02.066Z,1.95
2023-10-23T18:28:29.388Z,2.17
2023-10-23T18:30:57.079Z,1.73
2023-10-23T18:33:24.633Z,2.45
2023-10-23T18:35:52.082Z,1.80
2023-10-23T18:38:19.072Z,2.10
2023-10-23T18:40:46.945Z,1.80
2023-10-23T18:43:13.803Z,1.80
2023-10-23T18:45:44.643Z,1.90
2023-10-23T18:48:11.493Z,1.60
2023-10-23T18:50:38.230Z,1.60
2023-10-23T18:53:04.878Z,1.60
2023-10-23T18:55:31.509Z,1.50
2023-10-23T18:57:58.159Z,1.60
2023-10-23T19:00:26.078Z,1.15
2023-10-23T19:02:52.801Z,1.70
2023-10-23T19:05:19.519Z,1.52
2023-10-23T19:07:46.365Z,1.52
2023-10-23T19:10:13.183Z,1.60
2023-10-23T19:12:39.811Z,1.58
2023-10-23T19:15:06.696Z,1.25
2023-10-23T19:20:06.600Z,1.02
2023-10-23T19:22:35.556Z,1.30
2023-10-23T19:25:02.661Z,1.65
2023-10-23T19:27:29.376Z,1.20
2023-10-23T19:29:56.151Z,1.63
2023-10-23T19:32:23.079Z,0.95
2023-10-23T19:34:50.213Z,0.80
2023-10-23T19:37:17.132Z,1.05
2023-10-23T19:39:45.300Z,1.10
2023-10-23T19:42:19.109Z,0.95
2023-10-23T19:47:15.926Z,1.00
2023-10-23T19:49:44.044Z,1.10
2023-10-23T19:52:14.307Z,1.15
2023-10-23T19:54:48.345Z,1.55
2023-10-23T19:57:17.462Z,1.30
2023-10-23T19:59:44.477Z,1.17
2023-10-23T20:02:11.368Z,1.30
2023-10-23T20:04:38.603Z,1.05
2023-10-23T20:07:05.713Z,1.27
2023-10-23T20:09:32.759Z,0.90
2023-10-23T20:11:59.506Z,1.00
2023-10-23T20:14:26.786Z,1.27
2023-10-23T20:16:53.836Z,0.70
2023-10-23T20:19:20.638Z,0.88
2023-10-23T20:21:47.231Z,0.90
2023-10-23T20:24:13.857Z,0.75
2023-10-23T20:26:40.904Z,0.80
2023-10-23T20:29:08.206Z,0.85
2023-10-23T20:31:35.095Z,1.00
2023-10-23T20:34:01.928Z,1.00
2023-10-23T20:36:28.518Z,1.15
2023-10-23T20:38:55.727Z,0.88
2023-10-23T20:41:22.572Z,0.75
2023-10-23T20:43:49.977Z,0.52
2023-10-23T20:46:17.740Z,1.10
2023-10-23T20:48:44.571Z,0.80
2023-10-23T20:51:11.265Z,1.10
2023-10-23T20:53:38.414Z,0.85
2023-10-23T20:56:05.677Z,0.80
2023-10-23T20:58:32.379Z,1.05
2023-10-23T21:01:08.970Z,0.47
2023-10-23T21:03:37.059Z,1.00
2023-10-23T21:06:05.707Z,0.90
2023-10-23T21:08:40.226Z,1.00
2023-10-23T21:11:07.676Z,0.80
2023-10-23T21:13:35.080Z,0.80
2023-10-23T21:16:02.186Z,0.80
2023-10-23T21:18:29.057Z,0.70
2023-10-23T21:20:56.160Z,0.70
2023-10-23T21:23:23.259Z,0.50
2023-10-23T21:25:52.869Z,0.70
2023-10-23T21:28:26.689Z,0.70
2023-10-23T21:30:54.614Z,0.60
2023-10-23T21:35:47.826Z,0.98
2023-10-23T21:38:14.880Z,1.20
2023-10-23T21:40:48.099Z,0.57
2023-10-23T21:43:15.491Z,0.60
2023-10-23T21:45:42.306Z,0.57
2023-10-23T21:48:09.695Z,0.80
2023-10-23T21:50:41.723Z,1.00
2023-10-23T21:53:08.586Z,0.60
2023-10-23T21:55:36.331Z,0.60
2023-10-23T22:00:30.298Z,0.60
2023-10-23T22:02:57.932Z,0.93
2023-10-23T22:05:24.909Z,0.75
2023-10-23T22:07:52.883Z,0.60
2023-10-23T22:10:20.179Z,0.73
2023-10-23T22:12:47.331Z,0.50
2023-10-23T22:15:14.035Z,0.40
2023-10-23T22:17:40.694Z,0.77
2023-10-23T22:20:07.844Z,0.50
2023-10-23T22:22:34.554Z,0.60
2023-10-23T22:25:01.187Z,0.70
2023-10-23T22:27:28.576Z,0.68
2023-10-23T22:29:55.185Z,0.70
2023-10-23T22:32:21.791Z,0.60
2023-10-23T22:34:48.388Z,0.63
2023-10-23T22:38:02.085Z,0.80
2023-10-23T22:40:02.363Z,0.60
2023-10-23T22:42:28.918Z,0.60
2023-10-23T22:44:56.371Z,0.70
2023-10-23T22:47:23.151Z,0.50
2023-10-23T22:49:50.250Z,0.60
2023-10-23T22:52:17.315Z,0.68
2023-10-23T22:54:44.218Z,0.45
2023-10-23T22:57:13.220Z,0.75
2023-10-23T22:59:40.071Z,0.65
2023-10-23T23:02:07.178Z,0.95
2023-10-23T23:04:34.253Z,0.73
2023-10-23T23:07:01.354Z,0.50
2023-10-23T23:09:28.305Z,0.50
2023-10-23T23:11:55.605Z,0.68
2023-10-23T23:14:22.583Z,0.50
2023-10-23T23:16:50.317Z,0.50
2023-10-23T23:19:24.530Z,0.60
2023-10-23T23:22:00.564Z,0.55
2023-10-23T23:24:27.102Z,1.05
2023-10-23T23:26:54.480Z,0.45
2023-10-23T23:29:21.038Z,0.40
2023-10-23T23:31:47.746Z,0.50
2023-10-23T23:34:14.399Z,0.77
2023-10-23T23:36:41.007Z,0.50
2023-10-23T23:39:09.504Z,0.45
2023-10-23T23:41:36.061Z,0.68
2023-10-23T23:44:03.388Z,0.50
2023-10-23T23:46:30.103Z,0.60
2023-10-23T23:48:56.791Z,0.60
2023-10-23T23:51:23.348Z,0.55
2023-10-23T23:53:49.960Z,0.50
2023-10-23T23:56:16.514Z,0.63
2023-10-23T23:58:43.116Z,0.40
